• Join FlightAware (Why Join?)
  • Login
  • US Flag 
06:47AM EST


 

Airport Tracker/Info


-or-


 

Live Flight TrackerFlight Track Log ✈ UAL4528 ✈ 09-Apr-2013 ✈ KLFT - KIAH

Flight Track Log - Related Links

Times and Time Zones

All times are in EDT time to prevent confusion due to time zone crossing. See the UAL4528 flight status page for this flight to view local times or setup timezone preferences in your user account.

Time Position Orientation Groundspeed Altitude Reporting Facility
EDT Latitude Longitude Course Direction KTS MPH feet Rate Location/Type
03:20PM 30.1353 -92.0822 227° Southwest 205 236 5,200  Level Houston Center
03:21PM 30.0388 -92.1890 227° Southwest  Level FlightAware Approximate
03:21PM 30.0967 -92.1422 233° Southwest 221 254 6,600  Level Houston Center
03:22PM 29.9956 -92.2628 231° Southwest  Level FlightAware Approximate
03:22PM 30.0528 -92.2089 233° Southwest 248 285 8,800  Level Houston Center
03:23PM 29.9447 -92.3341 231° Southwest  Level FlightAware Approximate
03:23PM 29.9964 -92.2961 233° Southwest 272 313 10,100  Level Houston Center
03:24PM 29.9003 -92.4158 249° West  Level FlightAware Approximate
03:24PM 29.9442 -92.3792 234° Southwest 296 341 11,100  Level Houston Center
03:25PM 29.8425 -92.4885 227° Southwest  Level FlightAware Approximate
03:25PM 29.8831 -92.4714 233° Southwest 339 390 11,700  Level Houston Center
03:26PM 29.8233 -92.5644 234° Southwest 355 409 12,000 120 Climbing Houston Center
03:27PM 29.7600 -92.6597 233° Southwest 364 419 12,000 720 Level Houston Center
03:28PM 29.6981 -92.7531 233° Southwest 366 421 13,500 1,440 Climbing Houston Center
03:29PM 29.6264 -92.8619 233° Southwest 359 413 15,000 1,140 Climbing Houston Center
03:30PM 29.5653 -92.9539 233° Southwest 360 414 15,900 480 Climbing Houston Center
03:31PM 29.5014 -93.0500 233° Southwest 371 427 16,100 60 Climbing Houston Center
03:32PM 29.4858 -93.1717 262° West 406 467 16,100 -60 Level Houston Center
03:33PM 29.4944 -93.2981 275° West 400 460 16,000 -60 Descending Houston Center
03:34PM 29.4992 -93.4258 272° West 400 460 16,000  Level Houston Center
03:35PM 29.5044 -93.5525 273° West 398 458 16,000 -300 Level Houston Center
03:36PM 29.5094 -93.7011 272° West 388 447 15,400 -1,020 Descending Houston Center
03:37PM 29.5144 -93.8231 273° West 384 442 13,900 -1,200 Descending Houston Center
03:38PM 29.5186 -93.9400 272° West 372 428 13,000 -480 Descending Houston Center
03:39PM 29.5217 -94.0464 272° West 341 392 13,000  Level Houston Center
03:40PM 29.5258 -94.1131 274° West 331 381 13,000  Level Houston Center
03:40PM 29.5253 -94.1539 269° West 337 388 13,000  Level Houston Center
03:41PM 29.5281 -94.1992 274° West 336 387 13,000 60 Level Houston Center
03:41PM 29.5303 -94.2719 272° West 339 390 13,100  Climbing Houston Center
03:42PM 29.5317 -94.3189 272° West 351 404 13,000 -120 Descending Houston Center
03:43PM 29.5478 -94.3800 287° West 347 399 13,000 -240 Level Houston Center
03:43PM 29.5650 -94.4206 296° West 344 396 12,800 -780 Descending Houston Center
03:44PM 29.5897 -94.4756 297° West 340 391 12,200 -1,200 Descending Houston Center
03:44PM 29.6086 -94.5231 295° West 336 387 11,500 -1,320 Descending Houston Center
03:45PM 29.6411 -94.5983 296° West 342 394 10,800 -840 Descending Houston Center
03:46PM 29.6811 -94.6906 297° West 342 394 10,100 -1,080 Descending Houston Center
03:47PM 29.7169 -94.7750 296° West 305 351 8,700 -1,920 Descending Houston Center
03:48PM 29.7583 -94.8747 296° West 286 329 6,100 -1,260 Descending Houston Center
03:49PM 29.7850 -94.9364 296° West 281 323 6,100  Level Houston Center
03:50PM 29.8261 -95.0333 296° West 284 327 6,100  Level Houston Center
03:51PM 29.8603 -95.1147 296° West 286 329 6,100 -60 Level Houston Center
03:52PM 29.8942 -95.1961 296° West 285 328 6,000 -60 Descending Houston Center
03:53PM 29.8989 -95.2811 274° West 266 306 6,000 -60 Level Houston Center
03:54PM 29.9000 -95.3800 271° West 254 292 5,900  Descending Houston Center
03:55PM 29.9006 -95.4547 271° West 231 266 6,000 -660 Climbing Houston Center
03:56PM 29.8992 -95.5319 269° West 219 252 4,600 -1,380 Descending Houston Center
03:57PM 29.9181 -95.5917 290° West 233 268 3,200 -840 Descending Houston Center
03:58PM 29.9856 -95.5819 North 221 254 3,000 -300 Descending Houston Center
03:59PM 29.9922 -95.5161 83° East 191 220 2,700 -300 Descending Houston Center